Hlavní strana
METAR-TAF:

METAR-TAF

Letiště :

Irkutsk, Rusko

zeměpisná šířka: 52-16N, zeměpisná délka: 104-19E, výška: 513 m

Aktuální stav počasí

Zpráva byla vytvořena před 20 minutami, v 07:00 UTC
Severoseverozápadní vítr 8 kt
Teplota -26°C
Vlhkost vzduchu 62%
Tlak 1035 hPa
Viditelnost: 2700 m
Zataženo ve výšce 3400 ft
slabé sněžení

METAR: UIII 200700Z 34004MPS 2700 -SN OVC034 M26/M31 Q1035 RESN R30/490245 NOSIG RMK QFE731/0975

Čas: 15:20 (07:20 UTC)

Předpověď počasí

Zpráva byla vytvořena před 2 hodinami a 20 minutami, v 05:00 UTC
Předpověď platná od 20 v 06 UTC do 21 v 06 UTC
Západoseverozápadní vítr 16 kt
Viditelnost 10 km a více
Oblačno až skoro zataženo ve výšce 2000 ft, Cumulonimbus.
nízko zvířený sníh
Dočasný
od 20 v 06 UTC do 20 v 15 UTC
Severozápadní vítr 19 kt s nárazy do 29 kt
Viditelnost: 1400 m
sněhové přeháňky, zvířený sníh
Změna
od 20 v 16 UTC do 20 v 18 UTC

TAF: UIII 200500Z 2006/2106 30008MPS 9999 DRSN BKN020CB TEMPO 2006/2015 32010G15MPS 1400 SHSN BLSN BECMG 2016/2018 NSC

Stav a předpovědi počasí z více než 4 000 letišť (zprávy METAR a TAF).

Červené a žluté tečky na mapě představují dostupné meteorologické stanice.

Když kurzor umístíte na tečku, zobrazí se název stanice.

Pak kliknutím zobrazíte stav a předpověď počasí.

Chcete-li změnit mapu, kliknutím na zelené tlačítko se znaménkem +mapu přiblížíte, kliknutím na zelené tlačítko se znaménkem – mapu oddálíte a kliknutím na zelené šipky přejdete na sousední mapy.


METAR-TAF: